Time;durP1;ratioP1;P1;durP2;ratioP2;P2;SDS_P1;SDS_P2;PMS_P1;PMS_P2;Temp;Humidity;BMP_temperature;BMP_pressure;BME280_temperature;BME280_humidity;BME280_pressure;Samples;Min_cycle;Max_cycle;Signal;HPM_P1;HPM_P2
2023/06/28 00:01:15;;;;;;;4.40;1.27;;;;;;;17.87;81.08;101605.00;4988407;28;20034;-74
2023/06/28 00:03:41;;;;;;;6.75;2.30;;;;;;;17.80;81.44;101614.56;5007701;28;20049;-74
2023/06/28 00:06:07;;;;;;;4.65;1.40;;;;;;;17.74;81.82;101607.44;5011839;28;20029;-75
2023/06/28 00:08:32;;;;;;;4.35;1.83;;;;;;;17.67;82.09;101602.91;5011168;28;20045;-74
2023/06/28 00:10:58;;;;;;;3.53;1.38;;;;;;;17.63;82.43;101600.84;5009031;28;20044;-74
2023/06/28 00:13:24;;;;;;;3.35;1.67;;;;;;;17.57;82.73;101602.38;5004162;28;21952;-75
2023/06/28 00:15:49;;;;;;;4.50;1.50;;;;;;;17.56;82.84;101600.78;5001349;28;20037;-74
2023/06/28 00:18:15;;;;;;;4.72;1.52;;;;;;;17.52;82.92;101597.69;5002911;28;20043;-75
2023/06/28 00:20:40;;;;;;;4.38;1.88;;;;;;;17.49;83.04;101590.19;5007279;28;20030;-74
2023/06/28 00:23:07;;;;;;;7.97;1.92;;;;;;;17.48;83.08;101608.75;5021297;28;20029;-75
2023/06/28 00:25:32;;;;;;;2.50;1.58;;;;;;;17.46;82.90;101608.09;5004318;28;20077;-75
2023/06/28 00:27:57;;;;;;;4.50;1.65;;;;;;;17.44;82.91;101610.06;5004643;28;20041;-74
2023/06/28 00:30:23;;;;;;;3.92;1.30;;;;;;;17.45;82.72;101609.09;5006889;28;20268;-73
2023/06/28 00:32:50;;;;;;;3.85;1.60;;;;;;;17.44;82.55;101610.06;5006039;28;20030;-74
2023/06/28 00:35:16;;;;;;;8.25;1.65;;;;;;;17.45;82.53;101609.09;5007166;28;20596;-75
2023/06/28 00:37:44;;;;;;;6.97;1.90;;;;;;;17.44;82.45;101615.31;4996343;28;20389;-75
2023/06/28 00:40:10;;;;;;;3.38;1.55;;;;;;;17.39;82.63;101617.69;5010796;28;20676;-74
2023/06/28 00:42:36;;;;;;;4.97;1.23;;;;;;;17.27;84.10;101618.16;5008071;28;20037;-74
2023/06/28 00:45:01;;;;;;;3.75;1.17;;;;;;;17.16;84.86;101626.44;5009619;28;20452;-75
2023/06/28 00:47:28;;;;;;;3.97;2.28;;;;;;;17.12;85.34;101633.00;5007806;28;20042;-74
2023/06/28 00:49:55;;;;;;;2.35;1.27;;;;;;;17.08;85.75;101632.59;4995332;28;20458;-74
2023/06/28 00:52:21;;;;;;;3.67;1.30;;;;;;;17.11;86.04;101631.41;5009700;28;20033;-74
2023/06/28 00:54:46;;;;;;;7.05;1.50;;;;;;;17.13;86.11;101632.84;5011038;28;20590;-75
2023/06/28 00:57:12;;;;;;;2.92;1.25;;;;;;;17.13;86.47;101621.56;4995295;28;20547;-74
2023/06/28 00:59:37;;;;;;;4.65;1.40;;;;;;;17.13;86.47;101621.56;4996651;28;20554;-74
2023/06/28 01:02:03;;;;;;;3.20;1.35;;;;;;;17.13;86.30;101621.56;5005804;28;20026;-74
2023/06/28 01:04:29;;;;;;;2.35;1.25;;;;;;;17.13;86.29;101624.97;5008723;28;20456;-74
2023/06/28 01:06:59;;;;;;;6.90;1.65;;;;;;;17.15;86.39;101626.63;5011787;28;20084;-75
2023/06/28 01:09:27;;;;;;;4.55;1.45;;;;;;;17.07;86.89;101623.09;5007253;28;20065;-74
2023/06/28 01:11:55;;;;;;;7.03;1.80;;;;;;;16.93;88.25;101623.88;5013945;28;20076;-74
2023/06/28 01:14:23;;;;;;;5.05;1.60;;;;;;;16.82;89.10;101626.88;5011754;28;20143;-74
2023/06/28 01:16:54;;;;;;;2.97;1.50;;;;;;;16.77;89.51;101624.81;5003590;28;20509;-74
2023/06/28 01:19:25;;;;;;;5.03;1.60;;;;;;;16.79;89.82;101635.09;5011951;28;20133;-74
2023/06/28 01:22:05;;;;;;;2.65;1.55;;;;;;;16.76;89.99;101625.78;5008220;28;20030;-74
2023/06/28 01:24:31;;;;;;;5.70;2.13;;;;;;;16.72;90.22;101627.13;5005217;28;20056;-74
2023/06/28 01:26:58;;;;;;;2.88;1.30;;;;;;;16.63;90.94;101625.56;4995395;28;20250;-74
2023/06/28 01:29:24;;;;;;;2.22;1.40;;;;;;;16.58;91.74;101626.09;5004264;28;20053;-74
2023/06/28 01:31:52;;;;;;;4.25;1.33;;;;;;;16.59;91.99;101634.75;5009878;28;20033;-74
2023/06/28 01:34:18;;;;;;;5.47;1.52;;;;;;;16.64;91.61;101638.50;5008857;28;20135;-74
2023/06/28 01:36:47;;;;;;;3.72;1.50;;;;;;;16.68;91.00;101637.13;5008772;28;20041;-74
2023/06/28 01:39:14;;;;;;;5.75;1.70;;;;;;;16.64;91.31;101638.50;5008281;28;20116;-74
2023/06/28 01:41:41;;;;;;;4.65;1.50;;;;;;;16.60;91.84;101637.22;5008296;28;20468;-74
2023/06/28 01:44:07;;;;;;;6.40;2.28;;;;;;;16.58;92.06;101626.09;5007486;28;20049;-74
2023/06/28 01:46:33;;;;;;;4.97;1.90;;;;;;;16.59;91.99;101634.75;5010531;28;20034;-74
2023/06/28 01:49:01;;;;;;;3.10;1.55;;;;;;;16.61;91.29;101632.78;5009136;28;20492;-75
2023/06/28 01:51:26;;;;;;;3.30;1.60;;;;;;;16.64;90.11;101621.97;5009634;28;20025;-74
2023/06/28 01:53:52;;;;;;;4.32;1.50;;;;;;;16.65;89.41;101637.50;5003785;28;20116;-74
2023/06/28 01:56:17;;;;;;;6.28;2.58;;;;;;;16.65;89.77;101636.69;5022543;28;20124;-74
2023/06/28 01:58:43;;;;;;;6.18;1.75;;;;;;;16.58;90.69;101638.38;4987023;28;20150;-74
2023/06/28 02:01:09;;;;;;;7.50;2.00;;;;;;;16.39;92.35;101650.94;4995182;28;20037;-74
2023/06/28 02:03:34;;;;;;;3.05;1.65;;;;;;;16.24;94.07;101643.03;5006967;28;20096;-74
2023/06/28 02:06:00;;;;;;;4.70;1.50;;;;;;;16.12;95.31;101647.00;5010927;28;20037;-74
2023/06/28 02:08:26;;;;;;;6.63;2.28;;;;;;;16.11;95.86;101648.00;5007226;28;20034;-74
2023/06/28 02:10:51;;;;;;;4.20;1.98;;;;;;;16.18;95.46;101648.13;5010484;28;20033;-74
2023/06/28 02:13:16;;;;;;;6.00;1.77;;;;;;;16.25;94.57;101643.84;4990959;28;20029;-74
2023/06/28 02:15:42;;;;;;;5.10;1.98;;;;;;;16.27;94.15;101637.44;5007095;28;20041;-74
2023/06/28 02:18:08;;;;;;;8.15;1.73;;;;;;;16.31;93.83;101643.13;5004387;28;20473;-74
2023/06/28 02:20:33;;;;;;;2.75;1.35;;;;;;;16.36;93.85;101648.66;5008496;28;20085;-74
2023/06/28 02:23:01;;;;;;;5.38;1.40;;;;;;;16.40;93.38;101639.47;5006597;28;20032;-74
2023/06/28 02:25:27;;;;;;;3.97;1.48;;;;;;;16.41;93.29;101635.06;5009255;28;20057;-74
2023/06/28 02:27:52;;;;;;;4.47;1.58;;;;;;;16.42;93.50;101626.22;4988276;28;20038;-74
2023/06/28 02:30:18;;;;;;;4.68;1.77;;;;;;;16.44;93.29;101625.03;5004600;28;20042;-74
2023/06/28 02:32:44;;;;;;;5.35;2.08;;;;;;;16.46;92.75;101623.09;5005254;28;20517;-74
2023/06/28 02:35:12;;;;;;;4.30;1.50;;;;;;;16.44;92.91;101621.63;4991996;28;20042;-74
2023/06/28 02:37:40;;;;;;;4.57;2.33;;;;;;;16.41;93.15;101622.00;5007438;28;20029;-74
2023/06/28 02:40:06;;;;;;;5.53;2.10;;;;;;;16.39;93.36;101629.16;4991798;28;20491;-74
2023/06/28 02:42:32;;;;;;;3.63;1.83;;;;;;;16.39;93.29;101622.16;5003806;28;20029;-74
2023/06/28 02:44:58;;;;;;;5.70;1.58;;;;;;;16.39;92.90;101619.53;5008434;28;20104;-75
2023/06/28 02:47:23;;;;;;;7.93;1.70;;;;;;;16.39;92.91;101619.53;5006953;28;20041;-74
2023/06/28 02:49:49;;;;;;;3.58;1.70;;;;;;;16.41;92.56;101622.78;5005505;28;20042;-75
2023/06/28 02:52:14;;;;;;;4.20;2.03;;;;;;;16.36;92.56;101614.63;5002031;28;20052;-74
2023/06/28 02:54:41;;;;;;;3.42;1.58;;;;;;;16.30;93.63;101628.44;5005631;28;20046;-74
2023/06/28 02:57:09;;;;;;;5.38;1.73;;;;;;;16.24;94.48;101621.28;5010291;28;20057;-74
2023/06/28 02:59:50;;;;;;;;;;;;;;;16.22;95.33;101625.84;4990927;28;20049;-74
2023/06/28 03:02:15;;;;;;;5.18;1.63;;;;;;;16.20;95.58;101622.59;5010116;28;19917;-74
2023/06/28 03:04:41;;;;;;;6.20;2.03;;;;;;;16.20;96.31;101628.66;5008272;28;20579;-74
2023/06/28 03:07:15;;;;;;;4.80;2.00;;;;;;;16.20;96.75;101625.22;5009991;28;20030;-74
2023/06/28 03:09:41;;;;;;;4.40;1.67;;;;;;;16.19;97.04;101628.81;5007077;28;21051;-74
2023/06/28 03:12:07;;;;;;;3.88;1.60;;;;;;;16.20;97.49;101631.28;5006879;28;20037;-73
2023/06/28 03:14:33;;;;;;;3.47;2.20;;;;;;;16.21;97.89;101621.63;5003743;28;20034;-74
2023/06/28 03:16:59;;;;;;;3.47;1.80;;;;;;;16.24;97.67;101623.91;5008721;28;20564;-73
2023/06/28 03:19:24;;;;;;;7.05;1.83;;;;;;;16.24;97.51;101626.50;5003923;28;20046;-73
2023/06/28 03:21:50;;;;;;;5.15;1.90;;;;;;;16.24;97.66;101616.06;5006896;28;20548;-73
2023/06/28 03:24:15;;;;;;;5.55;2.25;;;;;;;16.27;97.54;101624.34;5009878;28;20056;-73
2023/06/28 03:26:41;;;;;;;3.67;1.67;;;;;;;16.30;97.35;101623.19;5016865;28;20069;-73
2023/06/28 03:29:06;;;;;;;4.35;1.88;;;;;;;16.32;97.32;101622.03;5005260;28;20076;-74
2023/06/28 03:31:32;;;;;;;3.33;1.77;;;;;;;16.30;97.85;101610.13;5002904;28;20116;-74
2023/06/28 03:33:59;;;;;;;3.80;1.77;;;;;;;16.31;98.28;101614.34;4992933;28;20042;-73
2023/06/28 03:36:27;;;;;;;5.30;2.00;;;;;;;16.33;98.23;101613.19;5007696;28;20041;-74
2023/06/28 03:38:53;;;;;;;6.45;2.63;;;;;;;16.31;98.21;101616.97;5003765;28;20603;-74
2023/06/28 03:41:19;;;;;;;5.43;1.70;;;;;;;16.30;98.16;101618.78;5009962;28;20175;-74
2023/06/28 03:43:45;;;;;;;5.60;2.00;;;;;;;16.29;98.26;101609.31;5007148;28;20983;-74
2023/06/28 03:46:11;;;;;;;4.78;2.10;;;;;;;16.31;98.41;101609.94;4991246;28;20029;-74
2023/06/28 03:48:36;;;;;;;2.47;1.60;;;;;;;16.33;98.26;101607.97;5006103;28;20420;-73
2023/06/28 03:51:02;;;;;;;6.70;2.45;;;;;;;16.34;98.04;101606.97;5007377;28;20026;-73
2023/06/28 03:53:28;;;;;;;6.75;2.05;;;;;;;16.34;98.16;101600.91;4999491;28;20045;-73
2023/06/28 03:55:53;;;;;;;4.40;2.08;;;;;;;16.34;98.38;101598.31;5006752;28;20030;-73
2023/06/28 03:58:19;;;;;;;5.38;2.05;;;;;;;16.32;98.85;101602.91;5006381;28;20480;-73
2023/06/28 04:00:44;;;;;;;5.65;2.22;;;;;;;16.32;98.95;101598.47;5011706;28;20041;-74
2023/06/28 04:03:10;;;;;;;5.50;2.05;;;;;;;16.33;98.99;101607.13;5011294;28;20029;-73
2023/06/28 04:05:35;;;;;;;4.00;1.92;;;;;;;16.34;98.78;101600.91;5013122;28;20041;-73
2023/06/28 04:08:02;;;;;;;4.43;2.05;;;;;;;16.34;98.46;101601.72;5016055;28;20392;-73
2023/06/28 04:10:28;;;;;;;5.63;1.83;;;;;;;16.33;98.78;101607.13;5010611;28;20057;-74
2023/06/28 04:12:53;;;;;;;4.97;2.10;;;;;;;16.33;99.16;101604.50;5013178;28;20030;-73
2023/06/28 04:15:19;;;;;;;5.63;1.73;;;;;;;16.33;99.15;101601.91;5009882;28;20054;-73
2023/06/28 04:17:44;;;;;;;4.22;1.80;;;;;;;16.34;99.05;101604.34;5011183;28;20041;-73
2023/06/28 04:20:10;;;;;;;2.17;1.60;;;;;;;16.32;99.13;101602.91;5011714;28;20050;-73
2023/06/28 04:22:36;;;;;;;4.93;2.35;;;;;;;16.30;98.99;101608.31;5010854;28;20038;-73
2023/06/28 04:25:02;;;;;;;4.90;2.10;;;;;;;16.30;99.07;101610.91;5008849;28;20049;-73
2023/06/28 04:27:28;;;;;;;4.05;2.42;;;;;;;16.31;99.04;101606.50;5011908;28;20045;-73
2023/06/28 04:29:53;;;;;;;4.35;2.08;;;;;;;16.31;99.45;101619.56;5008323;28;20050;-74
2023/06/28 04:32:26;;;;;;;2.95;1.80;;;;;;;16.33;99.56;101612.38;5010769;28;20039;-74
2023/06/28 04:34:53;;;;;;;5.47;2.83;;;;;;;16.34;99.40;101604.34;5010245;28;20088;-73
2023/06/28 04:37:25;;;;;;;6.80;2.30;;;;;;;16.35;99.25;101602.56;5009853;28;20045;-74
2023/06/28 04:39:51;;;;;;;5.95;2.13;;;;;;;16.33;99.74;101613.19;5007500;28;20593;-73
2023/06/28 04:42:16;;;;;;;5.75;2.20;;;;;;;16.28;100.00;101604.25;5010627;28;20021;-74
2023/06/28 04:44:47;;;;;;;7.32;2.50;;;;;;;16.28;100.00;101602.44;5006732;28;20560;-74
2023/06/28 04:47:15;;;;;;;7.95;2.85;;;;;;;16.29;100.00;101605.84;5009186;28;20026;-74
2023/06/28 04:49:48;;;;;;;5.72;2.00;;;;;;;16.29;100.00;101598.84;5009150;28;20037;-73
2023/06/28 04:52:18;;;;;;;;;;;;;;;16.30;100.00;101599.66;5010548;28;20037;-73
2023/06/28 04:54:45;;;;;;;5.53;2.08;;;;;;;16.29;100.00;101593.59;5014916;28;19968;-73
2023/06/28 04:57:12;;;;;;;7.20;2.47;;;;;;;16.32;100.00;101601.09;4993781;28;20038;-72
2023/06/28 04:59:38;;;;;;;6.55;1.92;;;;;;;16.36;100.00;101601.56;5013946;28;20034;-73
2023/06/28 05:02:05;;;;;;;4.28;2.22;;;;;;;16.38;100.00;101604.81;4993377;28;20121;-73
2023/06/28 05:04:33;;;;;;;6.45;3.03;;;;;;;16.41;100.00;101606.28;4996400;28;20061;-73
2023/06/28 05:07:03;;;;;;;3.65;2.35;;;;;;;16.43;100.00;101610.34;5006495;28;20057;-73
2023/06/28 05:09:29;;;;;;;6.20;2.25;;;;;;;16.44;100.00;101606.72;4987801;28;20065;-74
2023/06/28 05:11:55;;;;;;;5.47;2.25;;;;;;;16.49;100.00;101600.97;5004691;28;20052;-73
2023/06/28 05:14:21;;;;;;;5.82;2.55;;;;;;;16.54;100.00;101603.91;4996998;28;20043;-73
2023/06/28 05:16:47;;;;;;;9.93;2.33;;;;;;;16.55;100.00;101605.50;5028144;28;20518;-73
2023/06/28 05:19:12;;;;;;;5.03;2.13;;;;;;;16.57;100.00;101608.75;4995921;28;20038;-73
2023/06/28 05:21:38;;;;;;;5.30;2.25;;;;;;;16.59;100.00;101598.91;5010123;28;20064;-73
2023/06/28 05:24:03;;;;;;;4.63;2.28;;;;;;;16.59;100.00;101601.53;5005571;28;20444;-73
2023/06/28 05:26:29;;;;;;;5.78;2.53;;;;;;;16.57;100.00;101597.47;5011574;28;20373;-73
2023/06/28 05:28:55;;;;;;;9.63;2.38;;;;;;;16.54;100.00;101596.84;5005653;28;20041;-74
2023/06/28 05:31:21;;;;;;;8.02;3.30;;;;;;;16.57;99.80;101602.72;5010450;28;20584;-73
2023/06/28 05:33:46;;;;;;;6.72;2.53;;;;;;;16.54;99.60;101604.69;5013493;28;20045;-73
2023/06/28 05:36:11;;;;;;;10.43;2.50;;;;;;;16.53;99.50;101597.00;5010838;28;20481;-73
2023/06/28 05:38:37;;;;;;;8.18;2.00;;;;;;;16.54;99.41;101596.03;5008871;28;20249;-73
2023/06/28 05:41:16;;;;;;;6.45;2.63;;;;;;;16.54;99.24;101602.09;5008595;28;20034;-73
2023/06/28 05:43:42;;;;;;;4.25;2.08;;;;;;;16.55;99.23;101597.66;5005500;28;20049;-74
2023/06/28 05:46:08;;;;;;;4.55;1.90;;;;;;;16.55;99.47;101597.66;5006389;28;20030;-74
2023/06/28 05:48:34;;;;;;;6.13;2.85;;;;;;;16.53;99.98;101603.06;5008314;28;20121;-74
2023/06/28 05:50:59;;;;;;;5.20;2.42;;;;;;;16.53;100.00;101602.25;5010309;28;20037;-74
2023/06/28 05:53:25;;;;;;;5.38;2.45;;;;;;;16.54;100.00;101596.03;5008423;28;20041;-74
2023/06/28 05:55:50;;;;;;;7.13;2.47;;;;;;;16.55;100.00;101603.69;4989343;28;20026;-73
2023/06/28 05:58:16;;;;;;;8.35;2.47;;;;;;;16.56;99.97;101599.28;5005271;28;20050;-74
2023/06/28 06:00:42;;;;;;;7.47;2.78;;;;;;;16.58;99.83;101593.88;5008060;28;20042;-73
2023/06/28 06:03:08;;;;;;;3.58;2.10;;;;;;;16.60;100.00;101599.75;5005172;28;20030;-73
2023/06/28 06:05:33;;;;;;;4.93;2.40;;;;;;;16.64;100.00;101601.03;5008830;28;20429;-73
2023/06/28 06:07:59;;;;;;;11.13;2.30;;;;;;;16.61;100.00;101596.94;5008033;28;20481;-74
2023/06/28 06:10:24;;;;;;;5.38;2.38;;;;;;;16.62;100.00;101595.97;5008824;28;20496;-74
2023/06/28 06:12:53;;;;;;;8.25;3.35;;;;;;;16.66;100.00;101596.44;4988793;28;20036;-73
2023/06/28 06:15:18;;;;;;;5.38;2.60;;;;;;;16.61;100.00;101598.75;5005549;28;20050;-74
2023/06/28 06:17:44;;;;;;;5.57;2.58;;;;;;;16.58;100.00;101593.88;5007306;28;20038;-74
2023/06/28 06:20:10;;;;;;;8.00;2.50;;;;;;;16.58;100.00;101599.13;5004911;28;20058;-74
2023/06/28 06:22:35;;;;;;;6.75;2.65;;;;;;;16.58;100.00;101594.69;5011925;28;20485;-74
2023/06/28 06:25:01;;;;;;;7.13;2.60;;;;;;;16.59;100.00;101596.31;5005493;28;20041;-74
2023/06/28 06:27:26;;;;;;;8.90;3.03;;;;;;;16.57;100.00;101597.47;5007493;28;20046;-73
2023/06/28 06:29:52;;;;;;;5.75;2.15;;;;;;;16.59;100.00;101598.13;4994439;28;20042;-74
2023/06/28 06:32:17;;;;;;;6.25;2.35;;;;;;;16.60;100.00;101595.31;5006690;28;20037;-74
2023/06/28 06:34:44;;;;;;;7.75;2.25;;;;;;;16.64;100.00;101601.84;5009382;28;20053;-73
2023/06/28 06:37:12;;;;;;;6.55;3.20;;;;;;;16.67;100.00;101596.25;5007147;28;20532;-74
2023/06/28 06:39:38;;;;;;;8.93;3.55;;;;;;;16.69;100.00;101598.69;5005357;28;20251;-74
2023/06/28 06:42:04;;;;;;;10.88;2.67;;;;;;;16.69;100.00;101603.94;5004489;28;20026;-75
2023/06/28 06:44:29;;;;;;;5.35;2.03;;;;;;;16.70;100.00;101600.31;5003429;28;20697;-75
2023/06/28 06:46:55;;;;;;;5.55;2.40;;;;;;;16.71;100.00;101597.53;5006330;28;20483;-74
2023/06/28 06:49:20;;;;;;;10.20;3.33;;;;;;;16.69;98.13;101598.69;5009175;28;23715;-74
2023/06/28 06:51:47;;;;;;;5.55;2.75;;;;;;;16.68;97.81;101602.28;5008599;28;20025;-75
2023/06/28 06:54:12;;;;;;;5.72;2.40;;;;;;;16.70;97.72;101608.97;5005641;28;20034;-74
2023/06/28 06:56:37;;;;;;;9.40;3.45;;;;;;;16.75;98.14;101600.59;5020214;28;20484;-74
2023/06/28 06:59:03;;;;;;;10.15;2.80;;;;;;;16.80;99.08;101600.91;4990219;28;21272;-74
2023/06/28 07:01:29;;;;;;;13.23;4.65;;;;;;;16.82;98.80;101595.44;5012440;28;20531;-74
2023/06/28 07:03:55;;;;;;;11.18;3.78;;;;;;;16.82;99.56;101600.69;5009004;28;20049;-74
2023/06/28 07:06:21;;;;;;;5.30;2.85;;;;;;;16.83;100.00;101594.50;5010294;28;20037;-74
2023/06/28 07:08:46;;;;;;;11.30;3.78;;;;;;;16.84;99.55;101591.72;4992611;28;20432;-75
2023/06/28 07:11:12;;;;;;;6.80;2.92;;;;;;;16.83;98.86;101592.69;5003467;28;20416;-75
2023/06/28 07:13:38;;;;;;;10.82;2.85;;;;;;;16.77;93.86;101593.38;5006471;28;20511;-74
2023/06/28 07:16:04;;;;;;;10.90;2.28;;;;;;;16.73;91.75;101595.53;4991739;28;20120;-74
2023/06/28 07:18:29;;;;;;;8.82;2.22;;;;;;;16.69;90.10;101598.69;5005730;28;20608;-74
2023/06/28 07:20:54;;;;;;;8.38;2.55;;;;;;;16.68;87.98;101597.06;5007028;28;20030;-74
2023/06/28 07:23:20;;;;;;;7.65;2.22;;;;;;;16.64;89.68;101595.78;5004204;28;20440;-74
2023/06/28 07:25:46;;;;;;;4.47;1.60;;;;;;;16.63;89.06;101599.38;5007561;28;20409;-74
2023/06/28 07:28:11;;;;;;;14.23;2.30;;;;;;;16.73;92.08;101595.53;5010507;28;20113;-74
2023/06/28 07:30:58;;;;;;;11.18;2.10;;;;;;;16.74;92.94;101598.97;5011992;28;20026;-75
2023/06/28 07:33:24;;;;;;;8.27;2.20;;;;;;;16.79;92.45;101596.63;5010609;28;20536;-75
2023/06/28 07:35:51;;;;;;;7.45;2.50;;;;;;;16.79;90.58;101603.69;5013234;28;20037;-75
2023/06/28 07:38:18;;;;;;;7.57;1.98;;;;;;;16.80;90.12;101600.91;4993094;28;20038;-74
2023/06/28 07:40:45;;;;;;;5.55;2.15;;;;;;;16.82;90.82;101595.44;5007035;28;20057;-74
2023/06/28 07:43:10;;;;;;;11.02;2.35;;;;;;;16.90;89.30;101590.19;5006556;28;20072;-73
2023/06/28 07:45:35;;;;;;;9.98;2.40;;;;;;;16.90;89.03;101588.38;5010968;28;20037;-74
2023/06/28 07:48:01;;;;;;;14.93;2.30;;;;;;;16.94;88.07;101588.84;5010531;28;20051;-75
2023/06/28 07:50:26;;;;;;;6.35;2.28;;;;;;;16.91;89.03;101597.03;5012522;28;20057;-75
2023/06/28 07:52:52;;;;;;;18.08;2.25;;;;;;;16.87;89.79;101587.91;5010581;28;20034;-75
2023/06/28 07:55:17;;;;;;;10.38;2.30;;;;;;;16.96;91.00;101593.91;5006244;28;20050;-77
2023/06/28 07:57:43;;;;;;;8.80;1.90;;;;;;;17.02;89.67;101601.84;5005368;28;20029;-75
2023/06/28 08:00:10;;;;;;;6.50;2.10;;;;;;;17.10;88.46;101595.69;4990300;28;20049;-76
2023/06/28 08:02:36;;;;;;;13.15;2.15;;;;;;;17.19;88.24;101588.56;5009862;28;20088;-75
2023/06/28 08:05:01;;;;;;;9.68;2.13;;;;;;;17.28;89.85;101592.75;5008943;28;20046;-75
2023/06/28 08:07:27;;;;;;;9.07;2.45;;;;;;;17.37;88.89;101596.91;5010382;28;20044;-76
2023/06/28 08:09:55;;;;;;;6.90;2.00;;;;;;;17.37;88.35;101593.47;5012381;28;20045;-76
2023/06/28 08:12:21;;;;;;;8.60;2.08;;;;;;;17.49;88.86;101590.19;5009534;28;20042;-75
2023/06/28 08:14:46;;;;;;;8.38;2.15;;;;;;;17.58;89.25;101593.53;5009421;28;20067;-75
2023/06/28 08:17:12;;;;;;;6.93;1.95;;;;;;;17.65;89.01;101597.06;5006595;28;20030;-76
2023/06/28 08:19:37;;;;;;;8.98;1.95;;;;;;;17.62;86.53;101604.47;5005999;28;20034;-76
2023/06/28 08:22:03;;;;;;;8.23;2.38;;;;;;;17.57;85.07;101604.19;5010982;28;20034;-78
2023/06/28 08:24:29;;;;;;;6.57;2.50;;;;;;;17.54;85.66;101601.94;4992333;28;20054;-75
2023/06/28 08:26:54;;;;;;;11.35;2.10;;;;;;;17.59;87.15;101599.59;4989731;28;20554;-76
2023/06/28 08:29:21;;;;;;;6.88;2.15;;;;;;;17.65;84.02;101610.16;5004948;28;20097;-74
2023/06/28 08:31:46;;;;;;;7.60;2.20;;;;;;;17.49;83.02;101611.16;5007133;28;21873;-73
2023/06/28 08:34:12;;;;;;;6.72;2.55;;;;;;;17.42;84.30;101601.59;5004906;28;20057;-75
2023/06/28 08:36:37;;;;;;;12.32;2.55;;;;;;;17.51;83.15;101600.50;5010148;28;20041;-75
2023/06/28 08:39:03;;;;;;;8.98;2.13;;;;;;;17.35;83.18;101598.88;5007878;28;20041;-75
2023/06/28 08:41:28;;;;;;;13.35;2.20;;;;;;;17.48;85.20;101601.69;5007595;28;20038;-74
2023/06/28 08:43:56;;;;;;;8.50;2.20;;;;;;;17.44;84.15;101599.59;5007288;28;20049;-72
2023/06/28 08:46:22;;;;;;;14.57;2.63;;;;;;;17.45;83.47;101596.78;5005601;28;20042;-74
2023/06/28 08:48:48;;;;;;;6.13;1.98;;;;;;;17.44;84.28;101589.94;5007249;28;20065;-75
2023/06/28 08:51:17;;;;;;;10.70;2.70;;;;;;;17.52;84.72;101600.31;4997946;28;20821;-75
2023/06/28 08:53:46;;;;;;;11.20;2.80;;;;;;;17.62;85.83;101599.22;5009002;28;20124;-75
2023/06/28 08:56:12;;;;;;;6.22;2.10;;;;;;;17.74;82.14;101596.94;5010959;28;20042;-73
2023/06/28 08:58:38;;;;;;;10.20;2.00;;;;;;;17.73;81.30;101592.69;5005204;28;20053;-75
2023/06/28 09:01:04;;;;;;;6.05;2.00;;;;;;;17.66;80.71;101597.84;5010423;28;20068;-75
2023/06/28 09:03:30;;;;;;;11.80;2.90;;;;;;;17.75;82.20;101599.38;5005948;28;20060;-73
2023/06/28 09:05:56;;;;;;;6.90;2.20;;;;;;;17.80;82.37;101597.03;5006912;28;20704;-75
2023/06/28 09:08:22;;;;;;;15.35;3.20;;;;;;;17.77;81.73;101593.97;5005419;28;20037;-75
2023/06/28 09:10:48;;;;;;;13.30;2.67;;;;;;;17.77;81.47;101600.00;5027867;28;20488;-73
2023/06/28 09:13:19;;;;;;;13.35;2.95;;;;;;;17.74;83.92;101595.13;5011967;28;20021;-75
2023/06/28 09:15:46;;;;;;;6.90;2.58;;;;;;;17.88;85.40;101596.13;5008504;28;20026;-75
2023/06/28 09:18:12;;;;;;;5.20;1.95;;;;;;;17.95;84.64;101598.81;5006896;28;20095;-76
2023/06/28 09:20:46;;;;;;;5.03;2.00;;;;;;;18.07;85.09;101595.53;5008865;28;20030;-76
2023/06/28 09:23:12;;;;;;;6.90;1.95;;;;;;;18.25;79.75;101599.53;5004027;28;20165;-76
2023/06/28 09:25:37;;;;;;;5.50;2.53;;;;;;;18.32;76.99;101603.03;4995990;28;20208;-75
2023/06/28 09:28:05;;;;;;;8.77;2.13;;;;;;;18.15;77.26;101602.47;5008269;28;20041;-75
2023/06/28 09:30:56;;;;;;;12.82;2.50;;;;;;;18.17;78.97;101595.22;5008239;28;20100;-76
2023/06/28 09:33:22;;;;;;;11.13;2.40;;;;;;;18.17;77.98;101602.28;5003222;28;20516;-74
2023/06/28 09:35:53;;;;;;;5.43;1.98;;;;;;;18.27;78.20;101598.34;5004445;28;20015;-75
2023/06/28 09:38:19;;;;;;;5.80;2.08;;;;;;;18.25;78.94;101599.53;5022562;28;20184;-74
2023/06/28 09:40:52;;;;;;;9.68;2.42;;;;;;;18.38;77.38;101597.00;5005819;28;20108;-73
2023/06/28 09:43:17;;;;;;;10.30;2.20;;;;;;;18.36;77.18;101590.34;5003227;28;20026;-76
2023/06/28 09:45:43;;;;;;;7.45;2.35;;;;;;;18.34;78.15;101600.22;5013224;28;20484;-77
2023/06/28 09:48:08;;;;;;;9.10;2.72;;;;;;;18.42;79.76;101595.66;5005361;28;20138;-76
2023/06/28 09:50:41;;;;;;;9.30;2.25;;;;;;;18.49;78.37;101595.72;4994370;28;20049;-75
2023/06/28 09:53:12;;;;;;;13.55;2.60;;;;;;;18.55;78.55;101600.19;5004001;28;20087;-74
2023/06/28 09:55:42;;;;;;;10.18;2.70;;;;;;;18.58;76.76;101589.31;5005829;28;20062;-78
2023/06/28 09:58:23;;;;;;;6.13;2.13;;;;;;;18.51;78.67;101593.69;5004794;28;20439;-75
2023/06/28 10:00:49;;;;;;;16.98;3.20;;;;;;;18.58;77.93;101591.94;5010674;28;20054;-76
2023/06/28 10:03:25;;;;;;;10.50;2.10;;;;;;;18.60;77.60;101592.56;5007276;28;20069;-76
2023/06/28 10:05:54;;;;;;;8.20;2.97;;;;;;;18.73;77.63;101591.88;4994007;28;20380;-76
2023/06/28 10:08:20;;;;;;;11.32;2.08;;;;;;;18.72;77.75;101603.34;5005588;28;20033;-76
2023/06/28 10:10:46;;;;;;;9.43;2.38;;;;;;;18.82;78.52;101589.94;5006121;28;20030;-76
2023/06/28 10:13:18;;;;;;;8.20;2.65;;;;;;;18.88;76.90;101580.50;5008820;28;20034;-75
2023/06/28 10:15:56;;;;;;;6.27;2.60;;;;;;;18.98;75.76;101592.25;5006395;28;20042;-77
2023/06/28 10:18:22;;;;;;;7.68;2.00;;;;;;;19.08;75.31;101591.09;5021975;28;20038;-76
2023/06/28 10:20:48;;;;;;;7.50;2.38;;;;;;;19.21;74.06;101583.28;4991335;28;20030;-75
2023/06/28 10:23:15;;;;;;;9.73;2.60;;;;;;;19.25;73.93;101581.91;5014182;28;20087;-75
2023/06/28 10:25:43;;;;;;;6.95;2.33;;;;;;;19.31;74.52;101591.66;5003702;28;20040;-76
2023/06/28 10:28:09;;;;;;;7.15;1.80;;;;;;;19.36;75.57;101596.31;5011659;28;20041;-77
2023/06/28 10:30:35;;;;;;;7.72;2.47;;;;;;;19.41;77.63;101594.72;5010301;28;20046;-77
2023/06/28 10:33:04;;;;;;;8.85;2.60;;;;;;;19.49;76.89;101583.22;5007536;28;20913;-78
2023/06/28 10:35:30;;;;;;;6.30;2.80;;;;;;;19.52;76.09;101587.31;5025260;28;20411;-77
2023/06/28 10:38:00;;;;;;;7.43;2.20;;;;;;;19.53;71.34;101584.44;4989458;28;20038;-77
2023/06/28 10:40:26;;;;;;;10.57;2.90;;;;;;;19.68;72.75;101588.75;5012227;28;20092;-77
2023/06/28 10:42:51;;;;;;;8.90;2.78;;;;;;;19.78;71.96;101578.72;5012879;28;20049;-78
2023/06/28 10:45:17;;;;;;;7.07;2.47;;;;;;;20.10;71.94;101581.59;4993270;28;20037;-76
2023/06/28 10:47:55;;;;;;;9.40;3.08;;;;;;;20.14;70.16;101580.22;4996980;28;20411;-76
2023/06/28 10:50:22;;;;;;;13.57;2.95;;;;;;;20.15;69.22;101585.25;5008341;28;20041;-75
2023/06/28 10:52:51;;;;;;;11.23;2.17;;;;;;;20.23;71.25;101582.44;4988808;28;20036;-76
2023/06/28 10:55:20;;;;;;;6.28;1.85;;;;;;;20.27;71.81;101585.50;5008381;28;20044;-74
2023/06/28 10:57:46;;;;;;;8.23;2.75;;;;;;;20.26;70.45;101570.69;5007530;28;20268;-76
2023/06/28 11:00:40;;;;;;;12.43;2.47;;;;;;;20.33;70.25;101581.25;5006543;28;20076;-76
2023/06/28 11:03:07;;;;;;;6.50;2.22;;;;;;;20.36;70.18;101575.56;5009201;28;20037;-75
2023/06/28 11:05:45;;;;;;;9.60;2.50;;;;;;;20.40;68.96;101571.53;5025334;28;20052;-76
2023/06/28 11:08:15;;;;;;;10.93;2.33;;;;;;;20.47;68.56;101568.88;5004968;28;20040;-74
2023/06/28 11:10:44;;;;;;;13.85;2.90;;;;;;;20.45;68.22;101565.63;5004836;28;20128;-76
2023/06/28 11:13:12;;;;;;;6.55;2.47;;;;;;;20.50;70.93;101573.75;5007039;28;20031;-75
2023/06/28 11:16:11;;;;;;;8.77;1.92;;;;;;;20.51;70.96;101563.00;5006549;28;20116;-75
2023/06/28 11:18:37;;;;;;;9.07;2.35;;;;;;;20.59;69.71;101564.63;5008754;28;20060;-76
2023/06/28 11:21:04;;;;;;;8.23;2.70;;;;;;;20.64;69.52;101569.31;5020627;28;20133;-75
2023/06/28 11:23:34;;;;;;;13.70;2.55;;;;;;;20.71;69.77;101564.84;5010440;28;20052;-76